Hemingway, SC (29554)

9:50 AM EDT on July 31, 2014 (GMT -0400)
South Lakes (KSCCONWA24) Elev 24 ft | 33.81 °N, 79.08 °W | Change Station

Current weather conditions updated 6 seconds ago

Overcast
Overcast
78.4 °F
Feels Like 81 °F
N
1.0
Wind Variable Wind from East
Gusts 3.0 mph

Today is forecast to be nearly the same temperature as yesterday. A few thunderstorms possible.

Today
High -- | Low -- °F
--% Chance of Precip.
Yesterday
High -- | Low -- °F
Precip. -- in
6:29 AM 8:18 PM
Waxing Crescent, 18% visible
Pressure 30.07 in
Visibility 10.0 miles
Clouds Overcast 11000 ft
Heat Index 81 °F
Dew Point 71 °F
Humidity 77%
Rainfall 0.00 in
Snow Depth Not available.
UV 2.0 out of 12
Pollen 4.10 out of 12
Air Quality Not available.
Flu Activity Not available.
METAR KCKI 311335Z AUTO 06003KT 10SM OVC110 24/22 A3007 RMK AO2

More Conditions Fewer Conditions

Pressure 30.07 in
Visibility 10.0 miles
Clouds Overcast 11000 ft
Heat Index 81 °F
Dew Point 71 °F
Humidity 77%
Rainfall 0.00 in
Snow Depth Not available.
UV 2.0 out of 12
Pollen 4.10 out of 12
Air Quality Not available.
Flu Activity Not available.
METAR KCKI 311335Z AUTO 06003KT 10SM OVC110 24/22 A3007 RMK AO2

More Conditions Fewer Conditions

10-Day Weather Forecast

Almanac

Astronomy

Jul. 31, 2014 Rise Set
Actual Time 6:29 AM EDT 8:18 PM EDT
Civil Twilight 6:01 AM EDT 8:46 PM EDT
Nautical Twilight 5:28 AM EDT 9:19 PM EDT
Astronomical Twilight 4:53 AM EDT 9:54 PM EDT
Moon 10:39 AM EDT 10:47 PM EDT
Length of Visible Light 14h 44m
Length of Day
13h 49m
Tomorrow will be 1m 33s shorter.
Waxing Crescent, 18% of the Moon is Illuminated
Today
Waxing Crescent
Aug 3
First Quarter
Aug 10
Full
Aug 17
Last Quarter
Aug 25
New

Today's Extremes

State Highs State Lows

Community

WunderPhotos

Upload Photos

1,739,324 photos uploaded!

Nearby

Snow Depth

Station Depth Elevation
No new snow has been reported.

Earthquake Activity

City Distance Mag. Time & Date
No recent earthquake activity has been reported nearby.
Minimum magnitude displayed is 2.5.

Coastal Water Temperatures

Place Temperature
Springmaid Pier, SC 82.9 °F

Nearby Weather Stations

Station Location Temp. Heat Index Dew Point Humidity Wind Precip. Elev Updated Type
South Lakes, Conway, SC 78.4 °F 81 °F 71 °F 77% East  at  1.0 mph 0.00 in / hr 24 ft 9:50 AM EDT Normal
Red Hill, Conway, SC 81.7 °F 87 °F 73 °F 75% NNW  at  0.7 mph 0.00 in / hr 38 ft 9:50 AM EDT Rapid Fire
Horry County Courthouse, Conway, SC 80.8 °F 85 °F 73 °F 77% SE  at  3.0 mph 0.00 in / hr 29 ft 9:50 AM EDT Rapid Fire
J L Schwartz WWTF, Myrtle Beach, SC 80.2 °F 85 °F 74 °F 82% ESE  at  8.0 mph 0.00 in / hr 20 ft 9:50 AM EDT Rapid Fire
Earthworks Group, Inc., Murrells Inlet, SC 79.8 °F 84 °F 73 °F 80% SE  at  1.0 mph 0.00 in / hr 21 ft 9:48 AM EDT Normal

Show More Stations Show Fewer Stations